Time,TemperatureF,DewpointF,PressureIn,WindDirection,WindDirectionDegrees,WindSpeedMPH,WindSpeedGustMPH,Humidity,HourlyPrecipIn,Conditions,Clouds,dailyrainin,SoftwareType,DateUTC
2013-10-24 00:01:00,39.3,35.2,29.80,WNW,303,3.0,3.0,85,0.00,,,0.03,Wunderground v.1.15,2013-10-24 04:01:00,
2013-10-24 00:02:00,39.3,35.2,29.80,NW,312,4.0,4.0,85,0.00,,,0.03,Wunderground v.1.15,2013-10-24 04:02:00,
2013-10-24 00:03:00,39.3,35.2,29.80,North,355,3.0,5.0,85,0.00,,,0.03,Wunderground v.1.15,2013-10-24 04:03:00,
2013-10-24 00:04:00,39.3,35.2,29.80,NNW,346,4.0,5.0,85,0.00,,,0.03,Wunderground v.1.15,2013-10-24 04:04:00,
2013-10-24 00:05:00,39.2,35.1,29.80,NNW,329,3.0,5.0,85,0.00,,,0.03,Wunderground v.1.15,2013-10-24 04:05:00,
2013-10-24 00:09:00,39.1,35.0,29.80,NNW,344,3.0,10.0,85,0.00,,,0.03,Wunderground v.1.15,2013-10-24 04:09:00,
2013-10-24 00:15:00,38.8,34.7,29.80,NNW,342,3.0,4.0,85,0.00,,,0.03,Wunderground v.1.15,2013-10-24 04:15:00,
2013-10-24 00:21:00,38.6,34.5,29.80,NW,317,3.0,3.0,85,0.00,,,0.03,Wunderground v.1.15,2013-10-24 04:21:00,
2013-10-24 00:27:00,38.4,34.3,29.80,WNW,292,2.0,5.0,85,0.00,,,0.03,Wunderground v.1.15,2013-10-24 04:27:00,
2013-10-24 00:33:00,38.4,34.3,29.80,West,280,3.0,5.0,85,0.00,,,0.03,Wunderground v.1.15,2013-10-24 04:33:00,
2013-10-24 00:39:00,38.3,34.2,29.80,WNW,300,4.0,5.0,85,0.00,,,0.03,Wunderground v.1.15,2013-10-24 04:39:00,
2013-10-24 00:45:00,38.3,34.2,29.80,WNW,292,4.0,7.0,85,0.00,,,0.03,Wunderground v.1.15,2013-10-24 04:45:00,
2013-10-24 00:50:00,38.2,34.1,29.81,WNW,297,5.0,7.0,85,0.00,,,0.00,Wunderground v.1.15,2013-10-24 04:50:00,
2013-10-24 00:56:00,38.2,33.8,29.81,WNW,293,6.0,8.0,84,0.00,,,0.00,Wunderground v.1.15,2013-10-24 04:56:00,
2013-10-24 01:02:00,38.2,33.8,29.81,WNW,297,5.0,14.0,84,0.00,,,0.00,Wunderground v.1.15,2013-10-24 05:02:00,
2013-10-24 01:08:00,38.1,33.7,29.81,WNW,295,5.0,14.0,84,0.00,,,0.00,Wunderground v.1.15,2013-10-24 05:08:00,
2013-10-24 01:13:00,38.0,33.9,29.81,WNW,295,4.0,14.0,85,0.00,,,0.00,Wunderground v.1.15,2013-10-24 05:13:00,
2013-10-24 01:19:00,38.0,33.9,29.81,WNW,295,3.0,14.0,85,0.00,,,0.00,Wunderground v.1.15,2013-10-24 05:19:00,
2013-10-24 01:25:00,37.9,33.8,29.81,WNW,295,2.0,14.0,85,0.00,,,0.00,Wunderground v.1.15,2013-10-24 05:25:00,
2013-10-24 01:31:00,37.8,33.7,29.81,WNW,295,1.0,14.0,85,0.00,,,0.00,Wunderground v.1.15,2013-10-24 05:31:00,
2013-10-24 01:37:00,37.5,33.4,29.81,WNW,295,2.0,14.0,85,0.00,,,0.00,Wunderground v.1.15,2013-10-24 05:37:00,
2013-10-24 01:43:00,37.5,33.7,29.81,WNW,295,2.0,14.0,86,0.00,,,0.00,Wunderground v.1.15,2013-10-24 05:43:00,
2013-10-24 01:49:00,37.5,33.7,29.81,WNW,295,1.0,14.0,86,0.00,,,0.00,Wunderground v.1.15,2013-10-24 05:49:00,
2013-10-24 01:55:00,37.6,33.8,29.81,WNW,295,1.0,14.0,86,0.00,,,0.00,Wunderground v.1.15,2013-10-24 05:55:00,
2013-10-24 02:01:00,37.6,33.8,29.82,WNW,295,1.0,14.0,86,0.00,,,0.00,Wunderground v.1.15,2013-10-24 06:01:00,
2013-10-24 02:07:00,37.6,33.8,29.82,WNW,295,2.0,14.0,86,0.00,,,0.00,Wunderground v.1.15,2013-10-24 06:07:00,
2013-10-24 02:13:00,37.6,33.5,29.81,WNW,295,2.0,14.0,85,0.00,,,0.00,Wunderground v.1.15,2013-10-24 06:13:00,
2013-10-24 02:19:00,37.7,33.6,29.82,WNW,296,1.0,14.0,85,0.00,,,0.00,Wunderground v.1.15,2013-10-24 06:19:00,
2013-10-24 02:25:00,37.8,33.7,29.82,WNW,296,1.0,14.0,85,0.00,,,0.00,Wunderground v.1.15,2013-10-24 06:25:00,
2013-10-24 02:31:00,37.7,33.6,29.82,WNW,296,0.0,14.0,85,0.00,,,0.00,Wunderground v.1.15,2013-10-24 06:31:00,
2013-10-24 02:37:00,37.7,33.6,29.82,WNW,296,1.0,14.0,85,0.00,,,0.00,Wunderground v.1.15,2013-10-24 06:37:00,
2013-10-24 02:43:00,37.8,33.7,29.82,NW,311,1.0,14.0,85,0.00,,,0.00,Wunderground v.1.15,2013-10-24 06:43:00,
2013-10-24 02:48:00,37.8,33.7,29.82,WNW,295,1.0,14.0,85,0.00,,,0.00,Wunderground v.1.15,2013-10-24 06:48:00,
2013-10-24 02:54:00,37.9,33.8,29.82,WNW,292,1.0,14.0,85,0.00,,,0.00,Wunderground v.1.15,2013-10-24 06:54:00,
2013-10-24 03:00:00,37.8,33.4,29.82,WNW,303,2.0,14.0,84,0.00,,,0.00,Wunderground v.1.15,2013-10-24 07:00:00,
2013-10-24 03:06:00,37.7,33.6,29.82,NW,313,3.0,14.0,85,0.00,,,0.00,Wunderground v.1.15,2013-10-24 07:06:00,
2013-10-24 03:12:00,37.7,33.6,29.82,NNW,327,3.0,14.0,85,0.00,,,0.00,Wunderground v.1.15,2013-10-24 07:12:00,
2013-10-24 03:18:00,37.7,33.3,29.82,NW,309,2.0,14.0,84,0.00,,,0.00,Wunderground v.1.15,2013-10-24 07:18:00,
2013-10-24 03:24:00,37.7,33.3,29.82,WNW,302,2.0,14.0,84,0.00,,,0.00,Wunderground v.1.15,2013-10-24 07:24:00,
2013-10-24 03:30:00,37.8,33.4,29.82,WNW,302,2.0,2.0,84,0.00,,,0.00,Wunderground v.1.15,2013-10-24 07:30:00,
2013-10-24 03:36:00,37.8,33.4,29.82,WNW,302,1.0,14.0,84,0.00,,,0.00,Wunderground v.1.15,2013-10-24 07:36:00,
2013-10-24 03:42:00,37.9,33.2,29.82,NW,304,2.0,14.0,83,0.00,,,0.00,Wunderground v.1.15,2013-10-24 07:42:00,
2013-10-24 03:48:00,37.9,33.2,29.82,WNW,294,3.0,14.0,83,0.00,,,0.00,Wunderground v.1.15,2013-10-24 07:48:00,
2013-10-24 03:54:00,37.8,33.1,29.82,WNW,290,3.0,14.0,83,0.00,,,0.00,Wunderground v.1.15,2013-10-24 07:54:00,
2013-10-24 04:00:00,37.6,32.9,29.82,WNW,290,3.0,14.0,83,0.00,,,0.00,Wunderground v.1.15,2013-10-24 08:00:00,
2013-10-24 04:06:00,37.3,32.6,29.82,WNW,288,3.0,14.0,83,0.00,,,0.00,Wunderground v.1.15,2013-10-24 08:06:00,
2013-10-24 04:11:00,37.5,32.8,29.82,WNW,297,4.0,14.0,83,0.00,,,0.00,Wunderground v.1.15,2013-10-24 08:11:00,
2013-10-24 04:17:00,37.3,32.6,29.82,WNW,295,3.0,14.0,83,0.00,,,0.00,Wunderground v.1.15,2013-10-24 08:17:00,
2013-10-24 04:23:00,37.1,32.4,29.82,WNW,294,3.0,14.0,83,0.00,,,0.00,Wunderground v.1.15,2013-10-24 08:23:00,
2013-10-24 04:29:00,37.0,32.3,29.82,WNW,297,3.0,14.0,83,0.00,,,0.00,Wunderground v.1.15,2013-10-24 08:29:00,
2013-10-24 04:35:00,36.8,32.1,29.83,WNW,298,3.0,14.0,83,0.00,,,0.00,Wunderground v.1.15,2013-10-24 08:35:00,
2013-10-24 04:41:00,36.5,32.1,29.83,WNW,292,3.0,6.0,84,0.00,,,0.00,Wunderground v.1.15,2013-10-24 08:41:00,
2013-10-24 04:47:00,36.2,31.8,29.83,WNW,290,3.0,14.0,84,0.00,,,0.00,Wunderground v.1.15,2013-10-24 08:47:00,
2013-10-24 04:53:00,36.1,31.7,29.83,WNW,300,4.0,14.0,84,0.00,,,0.00,Wunderground v.1.15,2013-10-24 08:53:00,
2013-10-24 04:59:00,36.1,31.7,29.83,WNW,296,4.0,14.0,84,0.00,,,0.00,Wunderground v.1.15,2013-10-24 08:59:00,
2013-10-24 05:05:00,36.0,31.6,29.83,WNW,292,5.0,14.0,84,0.00,,,0.00,Wunderground v.1.15,2013-10-24 09:05:00,
2013-10-24 05:11:00,35.9,31.5,29.83,WNW,288,4.0,14.0,84,0.00,,,0.00,Wunderground v.1.15,2013-10-24 09:11:00,
2013-10-24 05:17:00,35.8,31.4,29.84,WNW,287,5.0,14.0,84,0.00,,,0.00,Wunderground v.1.15,2013-10-24 09:17:00,
2013-10-24 05:23:00,35.7,31.6,29.84,WNW,296,6.0,14.0,85,0.00,,,0.00,Wunderground v.1.15,2013-10-24 09:23:00,
2013-10-24 05:28:00,35.6,31.5,29.84,NW,318,5.0,14.0,85,0.00,,,0.00,Wunderground v.1.15,2013-10-24 09:28:00,
2013-10-24 05:34:00,35.4,31.3,29.84,WNW,293,4.0,14.0,85,0.00,,,0.00,Wunderground v.1.15,2013-10-24 09:34:00,
2013-10-24 05:40:00,35.2,31.1,29.84,WNW,296,3.0,3.0,85,0.00,,,0.00,Wunderground v.1.15,2013-10-24 09:40:00,
2013-10-24 05:46:00,35.1,31.0,29.85,NW,306,3.0,14.0,85,0.00,,,0.00,Wunderground v.1.15,2013-10-24 09:46:00,
2013-10-24 05:52:00,34.9,30.8,29.85,NW,316,3.0,14.0,85,0.00,,,0.00,Wunderground v.1.15,2013-10-24 09:52:00,
2013-10-24 05:58:00,34.8,30.8,29.85,NW,315,2.0,14.0,85,0.00,,,0.00,Wunderground v.1.15,2013-10-24 09:58:00,
2013-10-24 06:04:00,34.6,30.8,29.85,NW,317,1.0,14.0,86,0.00,,,0.00,Wunderground v.1.15,2013-10-24 10:04:00,
2013-10-24 06:10:00,34.6,30.6,29.85,NW,323,1.0,1.0,85,0.00,,,0.00,Wunderground v.1.15,2013-10-24 10:10:00,
2013-10-24 06:16:00,34.4,30.6,29.85,NW,323,0.0,14.0,86,0.00,,,0.00,Wunderground v.1.15,2013-10-24 10:16:00,
2013-10-24 06:22:00,34.3,30.5,29.86,NW,323,0.0,14.0,86,0.00,,,0.00,Wunderground v.1.15,2013-10-24 10:22:00,
2013-10-24 06:28:00,34.1,30.4,29.86,NW,323,0.0,14.0,86,0.00,,,0.00,Wunderground v.1.15,2013-10-24 10:28:00,
2013-10-24 06:34:00,33.9,30.4,29.86,NW,323,0.0,14.0,87,0.00,,,0.00,Wunderground v.1.15,2013-10-24 10:34:00,
2013-10-24 06:40:00,33.9,30.4,29.86,NW,323,0.0,14.0,87,0.00,,,0.00,Wunderground v.1.15,2013-10-24 10:40:00,
2013-10-24 06:46:00,33.9,30.4,29.86,NW,311,1.0,14.0,87,0.00,,,0.00,Wunderground v.1.15,2013-10-24 10:46:00,
2013-10-24 06:51:00,34.0,30.5,29.86,NNW,335,3.0,14.0,87,0.00,,,0.00,Wunderground v.1.15,2013-10-24 10:51:00,
2013-10-24 06:57:00,34.2,30.4,29.86,WNW,298,3.0,14.0,86,0.00,,,0.00,Wunderground v.1.15,2013-10-24 10:57:00,
2013-10-24 07:03:00,34.3,30.5,29.86,NW,326,4.0,14.0,86,0.00,,,0.00,Wunderground v.1.15,2013-10-24 11:03:00,
2013-10-24 07:09:00,34.3,30.5,29.86,NW,314,4.0,14.0,86,0.00,,,0.00,Wunderground v.1.15,2013-10-24 11:09:00,
2013-10-24 07:15:00,34.2,30.4,29.86,NW,317,3.0,14.0,86,0.00,,,0.00,Wunderground v.1.15,2013-10-24 11:15:00,
2013-10-24 07:21:00,34.2,30.4,29.87,NNW,333,3.0,14.0,86,0.00,,,0.00,Wunderground v.1.15,2013-10-24 11:21:00,
2013-10-24 07:27:00,34.3,30.5,29.86,West,272,3.0,14.0,86,0.00,,,0.00,Wunderground v.1.15,2013-10-24 11:27:00,
2013-10-24 07:33:00,34.4,30.4,29.86,WNW,294,3.0,14.0,85,0.00,,,0.00,Wunderground v.1.15,2013-10-24 11:33:00,
2013-10-24 07:39:00,35.0,30.7,29.86,West,281,5.0,14.0,84,0.00,,,0.00,Wunderground v.1.15,2013-10-24 11:39:00,
2013-10-24 07:45:00,35.3,30.7,29.86,NW,306,6.0,14.0,83,0.00,,,0.00,Wunderground v.1.15,2013-10-24 11:45:00,
2013-10-24 07:51:00,35.5,30.8,29.86,NW,315,6.0,14.0,83,0.00,,,0.00,Wunderground v.1.15,2013-10-24 11:51:00,
2013-10-24 07:57:00,35.7,30.7,29.87,WNW,298,5.0,14.0,82,0.00,,,0.00,Wunderground v.1.15,2013-10-24 11:57:00,
2013-10-24 08:03:00,36.0,31.0,29.87,West,277,5.0,14.0,82,0.00,,,0.00,Wunderground v.1.15,2013-10-24 12:03:00,
2013-10-24 08:08:00,36.1,30.8,29.87,West,271,6.0,14.0,81,0.00,,,0.00,Wunderground v.1.15,2013-10-24 12:08:00,
2013-10-24 08:14:00,36.4,31.1,29.87,West,273,8.0,14.0,81,0.00,,,0.00,Wunderground v.1.15,2013-10-24 12:14:00,
2013-10-24 08:20:00,36.8,31.2,29.88,WNW,287,8.0,8.0,80,0.00,,,0.00,Wunderground v.1.15,2013-10-24 12:20:00,
2013-10-24 08:26:00,37.0,31.1,29.88,WNW,288,7.0,14.0,79,0.00,,,0.00,Wunderground v.1.15,2013-10-24 12:26:00,
2013-10-24 08:32:00,37.2,31.3,29.88,WNW,300,7.0,9.0,79,0.00,,,0.00,Wunderground v.1.15,2013-10-24 12:32:00,
2013-10-24 08:38:00,37.5,31.3,29.88,WNW,289,7.0,14.0,78,0.00,,,0.00,Wunderground v.1.15,2013-10-24 12:38:00,
2013-10-24 08:44:00,37.8,31.2,29.88,WNW,286,8.0,14.0,77,0.00,,,0.00,Wunderground v.1.15,2013-10-24 12:44:00,
2013-10-24 08:50:00,38.0,31.4,29.88,WNW,284,10.0,10.0,77,0.00,,,0.00,Wunderground v.1.15,2013-10-24 12:50:00,
2013-10-24 08:55:00,38.2,31.6,29.88,WNW,300,9.0,14.0,77,0.00,,,0.00,Wunderground v.1.15,2013-10-24 12:55:00,
2013-10-24 09:01:00,38.4,31.5,29.88,West,281,9.0,14.0,76,0.00,,,0.00,Wunderground v.1.15,2013-10-24 13:01:00,
2013-10-24 09:06:00,38.7,31.8,29.88,WNW,290,9.0,14.0,76,0.00,,,0.00,Wunderground v.1.15,2013-10-24 13:06:00,
2013-10-24 09:11:00,38.8,31.6,29.89,West,265,9.0,15.0,75,0.00,,,0.00,Wunderground v.1.15,2013-10-24 13:11:00,
2013-10-24 09:16:00,38.9,31.6,29.89,West,277,11.0,15.0,75,0.00,,,0.00,Wunderground v.1.15,2013-10-24 13:16:00,
2013-10-24 09:22:00,38.9,31.3,29.89,NW,304,12.0,16.0,74,0.00,,,0.00,Wunderground v.1.15,2013-10-24 13:22:00,
2013-10-24 09:28:00,39.1,31.5,29.89,WNW,295,11.0,16.0,74,0.00,,,0.00,Wunderground v.1.15,2013-10-24 13:28:00,
2013-10-24 09:34:00,39.3,31.4,29.89,West,271,11.0,15.0,73,0.00,,,0.00,Wunderground v.1.15,2013-10-24 13:34:00,
2013-10-24 09:40:00,39.7,31.8,29.89,NW,318,10.0,10.0,73,0.00,,,0.00,Wunderground v.1.15,2013-10-24 13:40:00,
2013-10-24 09:46:00,39.9,31.6,29.89,NNW,327,10.0,19.0,72,0.00,,,0.00,Wunderground v.1.15,2013-10-24 13:46:00,
2013-10-24 09:52:00,39.8,31.8,29.89,West,275,11.0,14.0,73,0.00,,,0.00,Wunderground v.1.15,2013-10-24 13:52:00,
2013-10-24 09:58:00,40.1,32.1,29.89,WNW,286,10.0,14.0,73,0.00,,,0.00,Wunderground v.1.15,2013-10-24 13:58:00,
2013-10-24 10:04:00,40.6,32.6,29.89,WNW,288,8.0,14.0,73,0.00,,,0.00,Wunderground v.1.15,2013-10-24 14:04:00,
2013-10-24 10:10:00,40.8,32.5,29.89,WNW,283,9.0,18.0,72,0.00,,,0.00,Wunderground v.1.15,2013-10-24 14:10:00,
2013-10-24 10:15:00,40.9,32.2,29.89,WNW,300,9.0,18.0,71,0.00,,,0.00,Wunderground v.1.15,2013-10-24 14:15:00,
2013-10-24 10:21:00,41.3,32.6,29.89,North,355,8.0,14.0,71,0.00,,,0.00,Wunderground v.1.15,2013-10-24 14:21:00,
2013-10-24 10:27:00,41.6,32.5,29.89,WNW,283,9.0,14.0,70,0.00,,,0.00,Wunderground v.1.15,2013-10-24 14:27:00,
2013-10-24 10:33:00,41.8,32.0,29.89,WNW,294,9.0,14.0,68,0.00,,,0.00,Wunderground v.1.15,2013-10-24 14:33:00,
2013-10-24 10:39:00,42.0,32.2,29.89,WNW,290,10.0,14.0,68,0.00,,,0.00,Wunderground v.1.15,2013-10-24 14:39:00,
2013-10-24 10:45:00,42.0,31.8,29.89,NNW,327,12.0,21.0,67,0.00,,,0.00,Wunderground v.1.15,2013-10-24 14:45:00,
2013-10-24 10:51:00,42.3,31.4,29.89,NW,309,13.0,16.0,65,0.00,,,0.00,Wunderground v.1.15,2013-10-24 14:51:00,
2013-10-24 10:57:00,42.4,31.5,29.89,NNW,334,13.0,18.0,65,0.00,,,0.00,Wunderground v.1.15,2013-10-24 14:57:00,
2013-10-24 11:03:00,42.5,31.2,29.89,NW,321,12.0,15.0,64,0.00,,,0.00,Wunderground v.1.15,2013-10-24 15:03:00,
2013-10-24 11:09:00,42.9,31.2,29.89,WNW,290,13.0,23.0,63,0.00,,,0.00,Wunderground v.1.15,2013-10-24 15:09:00,
2013-10-24 11:15:00,43.1,31.4,29.88,NNW,335,13.0,14.0,63,0.00,,,0.00,Wunderground v.1.15,2013-10-24 15:15:00,
2013-10-24 11:21:00,43.4,31.2,29.88,NNW,328,12.0,14.0,62,0.00,,,0.00,Wunderground v.1.15,2013-10-24 15:21:00,
2013-10-24 11:27:00,44.2,32.4,29.88,NW,315,10.0,14.0,63,0.00,,,0.00,Wunderground v.1.15,2013-10-24 15:27:00,
2013-10-24 11:32:00,44.4,31.0,29.88,West,279,9.0,14.0,59,0.00,,,0.00,Wunderground v.1.15,2013-10-24 15:32:00,
2013-10-24 11:38:00,44.7,30.8,29.88,NW,309,10.0,16.0,58,0.00,,,0.00,Wunderground v.1.15,2013-10-24 15:38:00,
2013-10-24 11:44:00,45.3,30.5,29.88,NW,315,9.0,14.0,56,0.00,,,0.00,Wunderground v.1.15,2013-10-24 15:44:00,
2013-10-24 11:50:00,45.5,29.8,29.88,North,355,9.0,9.0,54,0.00,,,0.00,Wunderground v.1.15,2013-10-24 15:50:00,
2013-10-24 11:56:00,45.7,30.0,29.88,WNW,298,8.0,14.0,54,0.00,,,0.00,Wunderground v.1.15,2013-10-24 15:56:00,
2013-10-24 12:02:00,46.1,30.4,29.88,WNW,297,9.0,14.0,54,0.00,,,0.00,Wunderground v.1.15,2013-10-24 16:02:00,
2013-10-24 12:08:00,45.9,30.2,29.88,West,274,9.0,14.0,54,0.00,,,0.00,Wunderground v.1.15,2013-10-24 16:08:00,
2013-10-24 12:14:00,45.8,30.1,29.88,West,280,8.0,14.0,54,0.00,,,0.00,Wunderground v.1.15,2013-10-24 16:14:00,
2013-10-24 12:20:00,46.5,30.7,29.87,NW,311,8.0,14.0,54,0.00,,,0.00,Wunderground v.1.15,2013-10-24 16:20:00,
2013-10-24 12:26:00,46.5,29.8,29.87,NNE,25,10.0,14.0,52,0.00,,,0.00,Wunderground v.1.15,2013-10-24 16:26:00,
2013-10-24 12:32:00,45.8,29.2,29.87,WNW,296,10.0,21.0,52,0.00,,,0.00,Wunderground v.1.15,2013-10-24 16:32:00,
2013-10-24 12:38:00,45.7,29.5,29.87,NW,321,11.0,21.0,53,0.00,,,0.00,Wunderground v.1.15,2013-10-24 16:38:00,
2013-10-24 12:44:00,46.7,30.5,29.87,West,275,9.0,14.0,53,0.00,,,0.00,Wunderground v.1.15,2013-10-24 16:44:00,
2013-10-24 12:50:00,47.6,30.8,29.86,WSW,256,8.0,14.0,52,0.00,,,0.00,Wunderground v.1.15,2013-10-24 16:50:00,
2013-10-24 12:55:00,46.9,29.2,29.86,North,351,8.0,16.0,50,0.00,,,0.00,Wunderground v.1.15,2013-10-24 16:55:00,
2013-10-24 13:01:00,46.0,29.3,29.86,NW,305,10.0,13.0,52,0.00,,,0.00,Wunderground v.1.15,2013-10-24 17:01:00,
2013-10-24 13:07:00,46.0,28.9,29.86,NW,319,11.0,14.0,51,0.00,,,0.00,Wunderground v.1.15,2013-10-24 17:07:00,
2013-10-24 13:13:00,46.4,29.2,29.86,NNW,337,10.0,15.0,51,0.00,,,0.00,Wunderground v.1.15,2013-10-24 17:13:00,
2013-10-24 13:19:00,46.8,29.1,29.85,WNW,302,10.0,15.0,50,0.00,,,0.00,Wunderground v.1.15,2013-10-24 17:19:00,
2013-10-24 13:25:00,47.5,28.8,29.85,NW,311,9.0,14.0,48,0.00,,,0.00,Wunderground v.1.15,2013-10-24 17:25:00,
2013-10-24 13:31:00,48.0,29.7,29.85,NW,321,8.0,14.0,49,0.00,,,0.00,Wunderground v.1.15,2013-10-24 17:31:00,
2013-10-24 13:37:00,48.1,29.3,29.85,NNW,341,8.0,14.0,48,0.00,,,0.00,Wunderground v.1.15,2013-10-24 17:37:00,
2013-10-24 13:43:00,46.9,27.7,29.85,NW,307,11.0,19.0,47,0.00,,,0.00,Wunderground v.1.15,2013-10-24 17:43:00,
2013-10-24 13:49:00,46.6,28.4,29.85,West,280,13.0,19.0,49,0.00,,,0.00,Wunderground v.1.15,2013-10-24 17:49:00,
2013-10-24 13:55:00,46.5,28.3,29.85,NNW,336,13.0,19.0,49,0.00,,,0.00,Wunderground v.1.15,2013-10-24 17:55:00,
2013-10-24 14:01:00,46.9,28.7,29.85,WNW,283,10.0,16.0,49,0.00,,,0.00,Wunderground v.1.15,2013-10-24 18:01:00,
2013-10-24 14:07:00,47.4,28.7,29.85,WNW,286,11.0,22.0,48,0.00,,,0.00,Wunderground v.1.15,2013-10-24 18:07:00,
2013-10-24 14:12:00,48.0,29.7,29.85,WNW,289,10.0,14.0,49,0.00,,,0.00,Wunderground v.1.15,2013-10-24 18:12:00,
2013-10-24 14:18:00,47.9,28.6,29.85,NNW,336,10.0,14.0,47,0.00,,,0.00,Wunderground v.1.15,2013-10-24 18:18:00,
2013-10-24 14:24:00,47.1,28.9,29.85,WNW,284,9.0,14.0,49,0.00,,,0.00,Wunderground v.1.15,2013-10-24 18:24:00,
2013-10-24 14:30:00,47.1,28.9,29.85,WNW,302,9.0,9.0,49,0.00,,,0.00,Wunderground v.1.15,2013-10-24 18:30:00,
2013-10-24 14:36:00,47.4,29.7,29.86,NW,319,8.0,14.0,50,0.00,,,0.00,Wunderground v.1.15,2013-10-24 18:36:00,
2013-10-24 14:42:00,48.1,28.8,29.86,West,277,9.0,15.0,47,0.00,,,0.00,Wunderground v.1.15,2013-10-24 18:42:00,
2013-10-24 14:48:00,47.8,28.5,29.85,NNW,333,10.0,20.0,47,0.00,,,0.00,Wunderground v.1.15,2013-10-24 18:48:00,
2013-10-24 14:54:00,48.4,29.6,29.85,West,276,8.0,14.0,48,0.00,,,0.00,Wunderground v.1.15,2013-10-24 18:54:00,
2013-10-24 15:00:00,48.5,29.7,29.86,NNW,340,10.0,14.0,48,0.00,,,0.00,Wunderground v.1.15,2013-10-24 19:00:00,
2013-10-24 15:06:00,48.8,29.4,29.86,NW,323,9.0,14.0,47,0.00,,,0.00,Wunderground v.1.15,2013-10-24 19:06:00,
2013-10-24 15:12:00,47.8,28.0,29.86,West,279,8.0,14.0,46,0.00,,,0.00,Wunderground v.1.15,2013-10-24 19:12:00,
2013-10-24 15:19:00,47.2,28.5,29.86,North,355,10.0,14.0,48,0.00,,,0.00,Wunderground v.1.15,2013-10-24 19:19:00,
2013-10-24 15:25:00,47.1,28.4,29.86,NW,322,9.0,14.0,48,0.00,,,0.00,Wunderground v.1.15,2013-10-24 19:25:00,
2013-10-24 15:31:00,46.9,28.2,29.86,WNW,296,9.0,10.0,48,0.00,,,0.00,Wunderground v.1.15,2013-10-24 19:31:00,
2013-10-24 15:37:00,47.4,28.7,29.86,WNW,287,10.0,16.0,48,0.00,,,0.00,Wunderground v.1.15,2013-10-24 19:37:00,
2013-10-24 15:43:00,48.2,28.4,29.87,NNE,22,8.0,14.0,46,0.00,,,0.00,Wunderground v.1.15,2013-10-24 19:43:00,
2013-10-24 15:49:00,47.8,28.5,29.87,WNW,291,8.0,14.0,47,0.00,,,0.00,Wunderground v.1.15,2013-10-24 19:49:00,
2013-10-24 15:55:00,47.4,28.7,29.87,NW,312,7.0,14.0,48,0.00,,,0.00,Wunderground v.1.15,2013-10-24 19:55:00,
2013-10-24 16:01:00,47.3,28.6,29.88,WNW,302,6.0,14.0,48,0.00,,,0.00,Wunderground v.1.15,2013-10-24 20:01:00,
2013-10-24 16:07:00,47.2,28.5,29.87,West,266,8.0,14.0,48,0.00,,,0.00,Wunderground v.1.15,2013-10-24 20:07:00,
2013-10-24 16:13:00,47.5,28.8,29.88,NW,306,9.0,14.0,48,0.00,,,0.00,Wunderground v.1.15,2013-10-24 20:13:00,
2013-10-24 16:19:00,47.3,28.6,29.88,West,280,8.0,16.0,48,0.00,,,0.00,Wunderground v.1.15,2013-10-24 20:19:00,
2013-10-24 16:25:00,47.2,28.5,29.88,NW,323,8.0,14.0,48,0.00,,,0.00,Wunderground v.1.15,2013-10-24 20:25:00,
2013-10-24 16:30:00,47.1,28.9,29.88,WNW,300,8.0,8.0,49,0.00,,,0.00,Wunderground v.1.15,2013-10-24 20:30:00,
2013-10-24 16:36:00,47.0,28.3,29.88,WNW,290,8.0,14.0,48,0.00,,,0.00,Wunderground v.1.15,2013-10-24 20:36:00,
2013-10-24 16:42:00,46.8,28.1,29.88,West,277,9.0,14.0,48,0.00,,,0.00,Wunderground v.1.15,2013-10-24 20:42:00,
2013-10-24 16:48:00,46.8,28.1,29.89,WNW,291,10.0,18.0,48,0.00,,,0.00,Wunderground v.1.15,2013-10-24 20:48:00,
2013-10-24 16:54:00,46.7,28.0,29.89,WNW,298,11.0,14.0,48,0.00,,,0.00,Wunderground v.1.15,2013-10-24 20:54:00,
2013-10-24 17:00:00,46.6,27.9,29.89,WNW,303,8.0,8.0,48,0.00,,,0.00,Wunderground v.1.15,2013-10-24 21:00:00,
2013-10-24 17:06:00,46.5,28.3,29.89,NW,323,8.0,15.0,49,0.00,,,0.00,Wunderground v.1.15,2013-10-24 21:06:00,
2013-10-24 17:11:00,46.4,28.3,29.89,WNW,301,8.0,14.0,49,0.00,,,0.00,Wunderground v.1.15,2013-10-24 21:11:00,
2013-10-24 17:17:00,46.3,28.2,29.89,WNW,287,10.0,20.0,49,0.00,,,0.00,Wunderground v.1.15,2013-10-24 21:17:00,
2013-10-24 17:23:00,46.1,28.0,29.89,WNW,286,9.0,14.0,49,0.00,,,0.00,Wunderground v.1.15,2013-10-24 21:23:00,
2013-10-24 17:29:00,46.1,28.5,29.89,WNW,301,6.0,14.0,50,0.00,,,0.00,Wunderground v.1.15,2013-10-24 21:29:00,
2013-10-24 17:34:00,46.0,27.9,29.89,NNW,341,7.0,14.0,49,0.00,,,0.00,Wunderground v.1.15,2013-10-24 21:34:00,
2013-10-24 17:40:00,45.9,28.3,29.90,WNW,284,8.0,8.0,50,0.00,,,0.00,Wunderground v.1.15,2013-10-24 21:40:00,
2013-10-24 17:46:00,45.8,28.2,29.90,NNW,333,7.0,14.0,50,0.00,,,0.00,Wunderground v.1.15,2013-10-24 21:46:00,
2013-10-24 17:52:00,45.8,28.2,29.89,NW,311,8.0,14.0,50,0.00,,,0.00,Wunderground v.1.15,2013-10-24 21:52:00,
2013-10-24 17:58:00,45.7,28.1,29.90,NNW,336,6.0,14.0,50,0.00,,,0.00,Wunderground v.1.15,2013-10-24 21:58:00,
2013-10-24 18:04:00,45.7,28.1,29.91,WNW,294,7.0,15.0,50,0.00,,,0.00,Wunderground v.1.15,2013-10-24 22:04:00,
2013-10-24 18:10:00,45.8,27.7,29.91,WNW,292,9.0,16.0,49,0.00,,,0.00,Wunderground v.1.15,2013-10-24 22:10:00,
2013-10-24 18:16:00,45.7,28.1,29.91,WNW,294,9.0,16.0,50,0.00,,,0.00,Wunderground v.1.15,2013-10-24 22:16:00,
2013-10-24 18:22:00,45.6,28.0,29.91,WNW,299,6.0,14.0,50,0.00,,,0.00,Wunderground v.1.15,2013-10-24 22:22:00,
2013-10-24 18:28:00,45.5,27.9,29.92,WNW,288,5.0,14.0,50,0.00,,,0.00,Wunderground v.1.15,2013-10-24 22:28:00,
2013-10-24 18:34:00,45.5,27.9,29.92,WNW,294,6.0,14.0,50,0.00,,,0.00,Wunderground v.1.15,2013-10-24 22:34:00,
2013-10-24 18:40:00,45.4,28.3,29.92,WNW,302,7.0,7.0,51,0.00,,,0.00,Wunderground v.1.15,2013-10-24 22:40:00,
2013-10-24 18:46:00,45.3,29.6,29.92,North,360,5.0,14.0,54,0.00,,,0.00,Wunderground v.1.15,2013-10-24 22:46:00,
2013-10-24 18:52:00,44.6,30.7,29.92,NNE,16,6.0,14.0,58,0.00,,,0.00,Wunderground v.1.15,2013-10-24 22:52:00,
2013-10-24 18:58:00,44.0,31.8,29.93,North,5,5.0,14.0,62,0.00,,,0.00,Wunderground v.1.15,2013-10-24 22:58:00,
2013-10-24 19:04:00,43.4,32.4,29.93,NNW,339,3.0,14.0,65,0.00,,,0.00,Wunderground v.1.15,2013-10-24 23:04:00,
2013-10-24 19:10:00,42.9,33.1,29.93,NNW,339,2.0,2.0,68,0.00,,,0.00,Wunderground v.1.15,2013-10-24 23:10:00,
2013-10-24 19:15:00,42.6,33.1,29.93,NNW,339,1.0,14.0,69,0.00,,,0.00,Wunderground v.1.15,2013-10-24 23:15:00,
2013-10-24 19:21:00,42.2,33.1,29.93,NNW,339,0.0,14.0,70,0.00,,,0.00,Wunderground v.1.15,2013-10-24 23:21:00,
2013-10-24 19:27:00,41.8,33.4,29.93,NNW,333,1.0,14.0,72,0.00,,,0.00,Wunderground v.1.15,2013-10-24 23:27:00,
2013-10-24 19:33:00,41.6,33.6,29.94,NNW,329,1.0,14.0,73,0.00,,,0.00,Wunderground v.1.15,2013-10-24 23:33:00,
2013-10-24 19:39:00,41.4,33.4,29.94,NNW,347,0.0,14.0,73,0.00,,,0.00,Wunderground v.1.15,2013-10-24 23:39:00,
2013-10-24 19:45:00,41.2,33.5,29.94,North,11,0.0,14.0,74,0.00,,,0.00,Wunderground v.1.15,2013-10-24 23:45:00,
2013-10-24 19:51:00,41.0,33.7,29.94,North,11,0.0,14.0,75,0.00,,,0.00,Wunderground v.1.15,2013-10-24 23:51:00,
2013-10-24 19:57:00,40.8,33.8,29.94,North,11,0.0,14.0,76,0.00,,,0.00,Wunderground v.1.15,2013-10-24 23:57:00,
2013-10-24 20:03:00,40.7,34.0,29.95,North,11,0.0,14.0,77,0.00,,,0.00,Wunderground v.1.15,2013-10-25 00:03:00,
2013-10-24 20:09:00,40.5,34.2,29.95,North,11,0.0,14.0,78,0.00,,,0.00,Wunderground v.1.15,2013-10-25 00:09:00,
2013-10-24 20:15:00,40.4,34.4,29.95,NNE,24,2.0,14.0,79,0.00,,,0.00,Wunderground v.1.15,2013-10-25 00:15:00,
2013-10-24 20:21:00,40.3,34.6,29.95,NNW,344,3.0,14.0,80,0.00,,,0.00,Wunderground v.1.15,2013-10-25 00:21:00,
2013-10-24 20:27:00,40.3,34.6,29.95,NNW,348,1.0,14.0,80,0.00,,,0.00,Wunderground v.1.15,2013-10-25 00:27:00,
2013-10-24 20:32:00,40.3,34.6,29.95,NNE,21,1.0,14.0,80,0.00,,,0.00,Wunderground v.1.15,2013-10-25 00:32:00,
2013-10-24 20:38:00,40.2,34.5,29.95,North,5,1.0,14.0,80,0.00,,,0.00,Wunderground v.1.15,2013-10-25 00:38:00,
2013-10-24 20:44:00,40.2,34.8,29.96,North,5,0.0,14.0,81,0.00,,,0.00,Wunderground v.1.15,2013-10-25 00:44:00,
2013-10-24 20:50:00,40.2,34.8,29.96,North,360,0.0,14.0,81,0.00,,,0.00,Wunderground v.1.15,2013-10-25 00:50:00,
2013-10-24 20:56:00,40.2,34.8,29.96,NNW,333,1.0,14.0,81,0.00,,,0.00,Wunderground v.1.15,2013-10-25 00:56:00,
2013-10-24 21:02:00,40.1,34.7,29.96,NNW,341,1.0,14.0,81,0.00,,,0.00,Wunderground v.1.15,2013-10-25 01:02:00,
2013-10-24 21:08:00,40.0,34.6,29.96,NNW,334,0.0,14.0,81,0.00,,,0.00,Wunderground v.1.15,2013-10-25 01:08:00,
2013-10-24 21:14:00,39.9,34.5,29.96,NW,316,0.0,14.0,81,0.00,,,0.00,Wunderground v.1.15,2013-10-25 01:14:00,
2013-10-24 21:20:00,40.0,34.9,29.96,NW,316,0.0,14.0,82,0.00,,,0.00,Wunderground v.1.15,2013-10-25 01:20:00,
2013-10-24 21:26:00,40.0,34.9,29.96,NW,315,0.0,14.0,82,0.00,,,0.00,Wunderground v.1.15,2013-10-25 01:26:00,
2013-10-24 21:32:00,40.0,34.9,29.96,NW,315,0.0,14.0,82,0.00,,,0.00,Wunderground v.1.15,2013-10-25 01:32:00,
2013-10-24 21:38:00,40.0,34.9,29.96,NW,314,1.0,14.0,82,0.00,,,0.00,Wunderground v.1.15,2013-10-25 01:38:00,
2013-10-24 21:44:00,39.9,34.9,29.96,NW,314,1.0,14.0,82,0.00,,,0.00,Wunderground v.1.15,2013-10-25 01:44:00,
2013-10-24 21:50:00,39.9,34.9,29.96,NW,314,0.0,14.0,82,0.00,,,0.00,Wunderground v.1.15,2013-10-25 01:50:00,
2013-10-24 21:55:00,39.9,34.9,29.96,NW,314,0.0,14.0,82,0.00,,,0.00,Wunderground v.1.15,2013-10-25 01:55:00,
2013-10-24 22:01:00,39.8,34.8,29.97,NW,314,0.0,14.0,82,0.00,,,0.00,Wunderground v.1.15,2013-10-25 02:01:00,
2013-10-24 22:07:00,39.7,34.7,29.97,NW,314,0.0,14.0,82,0.00,,,0.00,Wunderground v.1.15,2013-10-25 02:07:00,
2013-10-24 22:13:00,39.5,34.8,29.97,NW,314,0.0,14.0,83,0.00,,,0.00,Wunderground v.1.15,2013-10-25 02:13:00,
2013-10-24 22:19:00,39.5,34.8,29.97,NW,314,0.0,14.0,83,0.00,,,0.00,Wunderground v.1.15,2013-10-25 02:19:00,
2013-10-24 22:25:00,39.5,34.8,29.97,NW,323,0.0,14.0,83,0.00,,,0.00,Wunderground v.1.15,2013-10-25 02:25:00,
2013-10-24 22:31:00,39.6,34.9,29.97,NW,323,0.0,14.0,83,0.00,,,0.00,Wunderground v.1.15,2013-10-25 02:31:00,
2013-10-24 22:37:00,39.7,35.0,29.97,NW,323,0.0,14.0,83,0.00,,,0.00,Wunderground v.1.15,2013-10-25 02:37:00,
2013-10-24 22:43:00,39.7,35.0,29.98,NW,323,0.0,14.0,83,0.00,,,0.00,Wunderground v.1.15,2013-10-25 02:43:00,
2013-10-24 22:49:00,39.8,35.1,29.98,NW,323,0.0,14.0,83,0.00,,,0.00,Wunderground v.1.15,2013-10-25 02:49:00,
2013-10-24 22:55:00,39.8,35.1,29.99,NW,323,0.0,14.0,83,0.00,,,0.00,Wunderground v.1.15,2013-10-25 02:55:00,
2013-10-24 23:01:00,39.7,35.3,29.99,NW,325,1.0,14.0,84,0.00,,,0.00,Wunderground v.1.15,2013-10-25 03:01:00,
2013-10-24 23:07:00,39.6,35.5,29.98,NW,319,3.0,14.0,85,0.00,,,0.00,Wunderground v.1.15,2013-10-25 03:07:00,
2013-10-24 23:12:00,39.4,35.6,29.98,North,355,4.0,14.0,86,0.00,,,0.00,Wunderground v.1.15,2013-10-25 03:12:00,
2013-10-24 23:18:00,39.2,35.7,29.98,North,360,3.0,14.0,87,0.00,,,0.00,Wunderground v.1.15,2013-10-25 03:18:00,
2013-10-24 23:24:00,39.1,35.6,29.99,NNW,339,1.0,14.0,87,0.00,,,0.00,Wunderground v.1.15,2013-10-25 03:24:00,
2013-10-24 23:30:00,39.0,35.5,29.99,NNW,338,1.0,1.0,87,0.00,,,0.00,Wunderground v.1.15,2013-10-25 03:30:00,
2013-10-24 23:36:00,38.9,35.6,29.99,NW,309,1.0,14.0,88,0.00,,,0.00,Wunderground v.1.15,2013-10-25 03:36:00,
2013-10-24 23:42:00,38.8,35.6,29.99,NW,317,3.0,14.0,88,0.00,,,0.01,Wunderground v.1.15,2013-10-25 03:42:00,
2013-10-24 23:48:00,38.6,35.6,30.00,NNW,336,3.0,14.0,89,0.00,,,0.01,Wunderground v.1.15,2013-10-25 03:48:00,
2013-10-24 23:54:00,38.5,35.5,30.00,West,281,3.0,14.0,89,0.00,,,0.01,Wunderground v.1.15,2013-10-25 03:54:00,